2022年5月27日

时间 代码 天气 温度 能见度 天花板 METAR/SPECI
7:00 下午
V
70 °F 6¼ mi+ 4.100 ft 070° 070° 9 kt METAR LFHP 271700Z AUTO 07009KT 040V100 9999 OVC041 21/11 Q1022
6:30 下午
V
70 °F 6¼ mi+ 4.200 ft 060° 060° 7 kt METAR LFHP 271630Z AUTO 06007KT 040V100 9999 BKN042 OVC048 21/10 Q1022
6:00 下午
V
72 °F 6¼ mi+ 4.600 ft 070° 070° 6 kt METAR LFHP 271600Z AUTO 07006KT 030V090 9999 BKN046 22/10 Q1023
5:30 下午
V
73 °F 6¼ mi+ - 090° 090° 7 kt METAR LFHP 271530Z AUTO 09007KT 050V130 9999 FEW048 23/10 Q1023
5:00 下午
V
73 °F 6¼ mi+ - 050° 050° 9 kt METAR LFHP 271500Z AUTO 05009KT 010V110 CAVOK 23/10 Q1023
4:30 下午
V
72 °F 6¼ mi+ - 060° 060° 7 kt METAR LFHP 271430Z AUTO 06007KT 350V110 CAVOK 22/10 Q1023
较旧的数据

下载我们的应用程序

在您的手机和平板电脑上轻松访问所有航空天气。
有许多网站上没有的功能,如离线支持和个人机场列表。

Studio Eveline

Benalmádena
España

我们和第三方通过cookies跟踪您在我们网站上的上网行为。如果您继续,我们认为您同意我们的cookie政策。 了解更多